sensor_id;sensor_type;location;lat;lon;timestamp;P1;durP1;ratioP1;P2;durP2;ratioP2
37339;SDS011;23223;51.006;7.610;2023-07-09T00:02:12;6.50;;;4.55;;
37339;SDS011;23223;51.006;7.610;2023-07-09T00:04:38;6.88;;;4.75;;
37339;SDS011;23223;51.006;7.610;2023-07-09T00:07:04;5.38;;;3.92;;
37339;SDS011;23223;51.006;7.610;2023-07-09T00:09:30;8.07;;;4.65;;
37339;SDS011;23223;51.006;7.610;2023-07-09T00:11:57;6.65;;;4.63;;
37339;SDS011;23223;51.006;7.610;2023-07-09T00:14:22;10.40;;;4.88;;
37339;SDS011;23223;51.006;7.610;2023-07-09T00:16:48;8.32;;;4.78;;
37339;SDS011;23223;51.006;7.610;2023-07-09T00:19:15;11.73;;;4.60;;
37339;SDS011;23223;51.006;7.610;2023-07-09T00:21:42;8.73;;;4.68;;
37339;SDS011;23223;51.006;7.610;2023-07-09T00:24:10;7.05;;;5.07;;
37339;SDS011;23223;51.006;7.610;2023-07-09T00:26:37;11.82;;;4.63;;
37339;SDS011;23223;51.006;7.610;2023-07-09T00:29:07;13.15;;;4.60;;
37339;SDS011;23223;51.006;7.610;2023-07-09T00:31:36;7.25;;;4.38;;
37339;SDS011;23223;51.006;7.610;2023-07-09T00:34:06;7.38;;;4.63;;
37339;SDS011;23223;51.006;7.610;2023-07-09T00:36:33;6.70;;;4.13;;
37339;SDS011;23223;51.006;7.610;2023-07-09T00:38:59;7.22;;;4.70;;
37339;SDS011;23223;51.006;7.610;2023-07-09T00:41:30;14.23;;;5.13;;
37339;SDS011;23223;51.006;7.610;2023-07-09T00:43:58;11.57;;;4.80;;
37339;SDS011;23223;51.006;7.610;2023-07-09T00:49:12;9.48;;;4.85;;
37339;SDS011;23223;51.006;7.610;2023-07-09T00:51:42;7.35;;;4.80;;
37339;SDS011;23223;51.006;7.610;2023-07-09T00:54:23;6.90;;;4.93;;
37339;SDS011;23223;51.006;7.610;2023-07-09T00:56:55;11.27;;;4.95;;
37339;SDS011;23223;51.006;7.610;2023-07-09T00:59:28;13.50;;;5.82;;
37339;SDS011;23223;51.006;7.610;2023-07-09T01:01:56;9.10;;;5.05;;
37339;SDS011;23223;51.006;7.610;2023-07-09T01:04:24;10.98;;;4.97;;
37339;SDS011;23223;51.006;7.610;2023-07-09T01:06:52;8.52;;;4.85;;
37339;SDS011;23223;51.006;7.610;2023-07-09T01:09:19;8.60;;;5.30;;
37339;SDS011;23223;51.006;7.610;2023-07-09T01:11:46;7.72;;;5.45;;
37339;SDS011;23223;51.006;7.610;2023-07-09T01:14:13;11.23;;;5.68;;
37339;SDS011;23223;51.006;7.610;2023-07-09T01:16:45;12.10;;;5.22;;
37339;SDS011;23223;51.006;7.610;2023-07-09T01:19:14;11.65;;;5.55;;
37339;SDS011;23223;51.006;7.610;2023-07-09T01:21:41;10.32;;;5.30;;
37339;SDS011;23223;51.006;7.610;2023-07-09T01:24:14;12.85;;;5.28;;
37339;SDS011;23223;51.006;7.610;2023-07-09T01:27:01;9.07;;;4.93;;
37339;SDS011;23223;51.006;7.610;2023-07-09T01:29:30;10.75;;;5.93;;
37339;SDS011;23223;51.006;7.610;2023-07-09T01:31:58;9.80;;;5.20;;
37339;SDS011;23223;51.006;7.610;2023-07-09T01:34:23;9.60;;;5.65;;
37339;SDS011;23223;51.006;7.610;2023-07-09T01:36:50;7.35;;;5.00;;
37339;SDS011;23223;51.006;7.610;2023-07-09T01:39:16;10.07;;;5.25;;
37339;SDS011;23223;51.006;7.610;2023-07-09T01:41:43;8.93;;;5.13;;
37339;SDS011;23223;51.006;7.610;2023-07-09T01:44:11;10.93;;;4.88;;
37339;SDS011;23223;51.006;7.610;2023-07-09T01:46:37;12.40;;;5.53;;
37339;SDS011;23223;51.006;7.610;2023-07-09T01:49:03;11.63;;;5.13;;
37339;SDS011;23223;51.006;7.610;2023-07-09T01:51:29;8.07;;;5.50;;
37339;SDS011;23223;51.006;7.610;2023-07-09T01:53:55;6.45;;;5.25;;
37339;SDS011;23223;51.006;7.610;2023-07-09T01:56:21;7.18;;;4.78;;
37339;SDS011;23223;51.006;7.610;2023-07-09T01:58:46;6.90;;;4.75;;
37339;SDS011;23223;51.006;7.610;2023-07-09T02:01:12;13.25;;;5.70;;
37339;SDS011;23223;51.006;7.610;2023-07-09T02:03:40;7.75;;;5.13;;
37339;SDS011;23223;51.006;7.610;2023-07-09T02:06:05;6.53;;;4.88;;
37339;SDS011;23223;51.006;7.610;2023-07-09T02:08:34;7.93;;;5.20;;
37339;SDS011;23223;51.006;7.610;2023-07-09T02:11:00;8.93;;;5.53;;
37339;SDS011;23223;51.006;7.610;2023-07-09T02:13:26;6.95;;;5.10;;
37339;SDS011;23223;51.006;7.610;2023-07-09T02:15:52;7.47;;;5.28;;
37339;SDS011;23223;51.006;7.610;2023-07-09T02:18:17;11.45;;;5.40;;
37339;SDS011;23223;51.006;7.610;2023-07-09T02:20:45;8.73;;;5.50;;
37339;SDS011;23223;51.006;7.610;2023-07-09T02:23:11;11.27;;;5.38;;
37339;SDS011;23223;51.006;7.610;2023-07-09T02:25:37;16.65;;;6.00;;
37339;SDS011;23223;51.006;7.610;2023-07-09T02:28:03;6.47;;;4.63;;
37339;SDS011;23223;51.006;7.610;2023-07-09T02:30:28;9.82;;;5.63;;
37339;SDS011;23223;51.006;7.610;2023-07-09T02:32:55;6.63;;;4.80;;
37339;SDS011;23223;51.006;7.610;2023-07-09T02:35:21;7.60;;;5.07;;
37339;SDS011;23223;51.006;7.610;2023-07-09T02:37:47;7.97;;;5.15;;
37339;SDS011;23223;51.006;7.610;2023-07-09T02:40:12;7.45;;;4.75;;
37339;SDS011;23223;51.006;7.610;2023-07-09T02:42:38;10.85;;;5.63;;
37339;SDS011;23223;51.006;7.610;2023-07-09T02:45:04;5.80;;;5.03;;
37339;SDS011;23223;51.006;7.610;2023-07-09T02:47:31;8.57;;;5.38;;
37339;SDS011;23223;51.006;7.610;2023-07-09T02:49:56;7.45;;;5.05;;
37339;SDS011;23223;51.006;7.610;2023-07-09T02:52:22;13.85;;;5.40;;
37339;SDS011;23223;51.006;7.610;2023-07-09T02:54:47;10.82;;;5.68;;
37339;SDS011;23223;51.006;7.610;2023-07-09T02:57:13;10.02;;;5.50;;
37339;SDS011;23223;51.006;7.610;2023-07-09T02:59:39;6.88;;;5.10;;
37339;SDS011;23223;51.006;7.610;2023-07-09T03:02:04;7.10;;;5.45;;
37339;SDS011;23223;51.006;7.610;2023-07-09T03:04:30;10.13;;;5.50;;
37339;SDS011;23223;51.006;7.610;2023-07-09T03:06:59;8.20;;;4.93;;
37339;SDS011;23223;51.006;7.610;2023-07-09T03:09:27;10.77;;;5.22;;
37339;SDS011;23223;51.006;7.610;2023-07-09T03:11:54;12.68;;;4.32;;
37339;SDS011;23223;51.006;7.610;2023-07-09T03:14:19;5.60;;;4.80;;
37339;SDS011;23223;51.006;7.610;2023-07-09T03:16:45;9.00;;;5.03;;
37339;SDS011;23223;51.006;7.610;2023-07-09T03:19:11;5.57;;;4.38;;
37339;SDS011;23223;51.006;7.610;2023-07-09T03:21:37;8.18;;;4.53;;
37339;SDS011;23223;51.006;7.610;2023-07-09T03:24:02;7.10;;;4.63;;
37339;SDS011;23223;51.006;7.610;2023-07-09T03:26:28;8.23;;;5.13;;
37339;SDS011;23223;51.006;7.610;2023-07-09T03:28:54;7.60;;;4.25;;
37339;SDS011;23223;51.006;7.610;2023-07-09T03:31:20;9.20;;;4.70;;
37339;SDS011;23223;51.006;7.610;2023-07-09T03:33:47;10.18;;;4.85;;
37339;SDS011;23223;51.006;7.610;2023-07-09T03:36:13;8.00;;;4.65;;
37339;SDS011;23223;51.006;7.610;2023-07-09T03:38:39;8.30;;;5.40;;
37339;SDS011;23223;51.006;7.610;2023-07-09T03:41:04;12.23;;;4.78;;
37339;SDS011;23223;51.006;7.610;2023-07-09T03:43:31;8.60;;;5.07;;
37339;SDS011;23223;51.006;7.610;2023-07-09T03:45:56;9.88;;;5.10;;
37339;SDS011;23223;51.006;7.610;2023-07-09T03:48:22;10.63;;;5.03;;
37339;SDS011;23223;51.006;7.610;2023-07-09T03:50:48;11.68;;;4.95;;
37339;SDS011;23223;51.006;7.610;2023-07-09T03:53:14;8.30;;;5.00;;
37339;SDS011;23223;51.006;7.610;2023-07-09T03:55:40;6.78;;;4.85;;
37339;SDS011;23223;51.006;7.610;2023-07-09T03:58:06;6.95;;;5.43;;
37339;SDS011;23223;51.006;7.610;2023-07-09T04:00:31;11.52;;;5.78;;
37339;SDS011;23223;51.006;7.610;2023-07-09T04:02:57;10.13;;;5.07;;
37339;SDS011;23223;51.006;7.610;2023-07-09T04:05:23;8.75;;;4.85;;
37339;SDS011;23223;51.006;7.610;2023-07-09T04:07:50;10.80;;;5.05;;
37339;SDS011;23223;51.006;7.610;2023-07-09T04:10:16;8.25;;;4.32;;
37339;SDS011;23223;51.006;7.610;2023-07-09T04:12:42;13.20;;;5.25;;
37339;SDS011;23223;51.006;7.610;2023-07-09T04:15:08;13.27;;;5.18;;
37339;SDS011;23223;51.006;7.610;2023-07-09T04:17:34;7.78;;;5.10;;
37339;SDS011;23223;51.006;7.610;2023-07-09T04:20:00;10.07;;;4.88;;
37339;SDS011;23223;51.006;7.610;2023-07-09T04:22:26;8.43;;;5.20;;
37339;SDS011;23223;51.006;7.610;2023-07-09T04:24:51;13.25;;;5.13;;
37339;SDS011;23223;51.006;7.610;2023-07-09T04:27:17;6.93;;;4.55;;
37339;SDS011;23223;51.006;7.610;2023-07-09T04:29:43;12.48;;;4.60;;
37339;SDS011;23223;51.006;7.610;2023-07-09T04:32:13;8.32;;;4.45;;
37339;SDS011;23223;51.006;7.610;2023-07-09T04:34:39;5.93;;;4.72;;
37339;SDS011;23223;51.006;7.610;2023-07-09T04:37:06;6.03;;;4.47;;
37339;SDS011;23223;51.006;7.610;2023-07-09T04:39:33;7.85;;;4.35;;
37339;SDS011;23223;51.006;7.610;2023-07-09T04:41:59;11.10;;;5.15;;
37339;SDS011;23223;51.006;7.610;2023-07-09T04:44:25;8.55;;;4.70;;
37339;SDS011;23223;51.006;7.610;2023-07-09T04:46:50;9.75;;;5.75;;
37339;SDS011;23223;51.006;7.610;2023-07-09T04:49:16;8.05;;;5.55;;
37339;SDS011;23223;51.006;7.610;2023-07-09T04:51:42;9.90;;;5.00;;
37339;SDS011;23223;51.006;7.610;2023-07-09T04:54:07;8.45;;;5.57;;
37339;SDS011;23223;51.006;7.610;2023-07-09T04:56:33;8.25;;;4.60;;
37339;SDS011;23223;51.006;7.610;2023-07-09T04:58:59;9.88;;;4.68;;
37339;SDS011;23223;51.006;7.610;2023-07-09T05:01:24;7.35;;;4.85;;
37339;SDS011;23223;51.006;7.610;2023-07-09T05:03:50;8.40;;;4.57;;
37339;SDS011;23223;51.006;7.610;2023-07-09T05:06:16;5.93;;;3.85;;
37339;SDS011;23223;51.006;7.610;2023-07-09T05:08:41;8.43;;;5.05;;
37339;SDS011;23223;51.006;7.610;2023-07-09T05:11:08;13.02;;;4.35;;
37339;SDS011;23223;51.006;7.610;2023-07-09T05:13:35;7.53;;;4.50;;
37339;SDS011;23223;51.006;7.610;2023-07-09T05:16:01;7.50;;;4.20;;
37339;SDS011;23223;51.006;7.610;2023-07-09T05:18:27;6.43;;;4.82;;
37339;SDS011;23223;51.006;7.610;2023-07-09T05:20:52;9.32;;;5.03;;
37339;SDS011;23223;51.006;7.610;2023-07-09T05:23:18;9.63;;;4.82;;
37339;SDS011;23223;51.006;7.610;2023-07-09T05:25:43;7.47;;;4.68;;
37339;SDS011;23223;51.006;7.610;2023-07-09T05:28:09;6.47;;;4.10;;
37339;SDS011;23223;51.006;7.610;2023-07-09T05:30:35;8.93;;;5.65;;
37339;SDS011;23223;51.006;7.610;2023-07-09T05:33:00;11.63;;;5.93;;
37339;SDS011;23223;51.006;7.610;2023-07-09T05:35:26;8.55;;;4.80;;
37339;SDS011;23223;51.006;7.610;2023-07-09T05:37:53;9.43;;;4.93;;
37339;SDS011;23223;51.006;7.610;2023-07-09T05:40:19;9.07;;;4.57;;
37339;SDS011;23223;51.006;7.610;2023-07-09T05:42:46;12.88;;;4.95;;
37339;SDS011;23223;51.006;7.610;2023-07-09T05:45:12;11.50;;;4.47;;
37339;SDS011;23223;51.006;7.610;2023-07-09T05:47:38;7.72;;;4.93;;
37339;SDS011;23223;51.006;7.610;2023-07-09T05:50:03;9.07;;;5.55;;
37339;SDS011;23223;51.006;7.610;2023-07-09T05:52:29;8.25;;;5.38;;
37339;SDS011;23223;51.006;7.610;2023-07-09T05:54:55;10.30;;;5.40;;
37339;SDS011;23223;51.006;7.610;2023-07-09T05:57:21;12.70;;;5.70;;
37339;SDS011;23223;51.006;7.610;2023-07-09T05:59:47;6.95;;;4.50;;
37339;SDS011;23223;51.006;7.610;2023-07-09T06:02:13;8.00;;;4.40;;
37339;SDS011;23223;51.006;7.610;2023-07-09T06:04:41;8.93;;;5.13;;
37339;SDS011;23223;51.006;7.610;2023-07-09T06:07:07;8.80;;;5.18;;
37339;SDS011;23223;51.006;7.610;2023-07-09T06:09:36;8.05;;;4.95;;
37339;SDS011;23223;51.006;7.610;2023-07-09T06:12:02;8.43;;;5.07;;
37339;SDS011;23223;51.006;7.610;2023-07-09T06:14:28;7.95;;;4.97;;
37339;SDS011;23223;51.006;7.610;2023-07-09T06:16:55;10.18;;;4.65;;
37339;SDS011;23223;51.006;7.610;2023-07-09T06:19:21;8.35;;;5.00;;
37339;SDS011;23223;51.006;7.610;2023-07-09T06:21:47;6.65;;;4.75;;
37339;SDS011;23223;51.006;7.610;2023-07-09T06:24:12;9.10;;;5.25;;
37339;SDS011;23223;51.006;7.610;2023-07-09T06:26:38;9.98;;;5.90;;
37339;SDS011;23223;51.006;7.610;2023-07-09T06:29:04;8.75;;;4.85;;
37339;SDS011;23223;51.006;7.610;2023-07-09T06:31:30;7.28;;;5.00;;
37339;SDS011;23223;51.006;7.610;2023-07-09T06:33:55;11.35;;;5.72;;
37339;SDS011;23223;51.006;7.610;2023-07-09T06:36:21;9.27;;;5.07;;
37339;SDS011;23223;51.006;7.610;2023-07-09T06:38:46;8.35;;;4.95;;
37339;SDS011;23223;51.006;7.610;2023-07-09T06:41:13;7.60;;;4.57;;
37339;SDS011;23223;51.006;7.610;2023-07-09T06:43:39;11.20;;;4.70;;
37339;SDS011;23223;51.006;7.610;2023-07-09T06:46:06;8.25;;;4.78;;
37339;SDS011;23223;51.006;7.610;2023-07-09T06:48:34;10.25;;;5.50;;
37339;SDS011;23223;51.006;7.610;2023-07-09T06:51:00;9.35;;;4.97;;
37339;SDS011;23223;51.006;7.610;2023-07-09T06:53:26;7.32;;;5.20;;
37339;SDS011;23223;51.006;7.610;2023-07-09T06:55:53;8.52;;;5.13;;
37339;SDS011;23223;51.006;7.610;2023-07-09T06:58:20;8.90;;;5.07;;
37339;SDS011;23223;51.006;7.610;2023-07-09T07:00:51;10.07;;;4.72;;
37339;SDS011;23223;51.006;7.610;2023-07-09T07:03:17;10.70;;;5.03;;
37339;SDS011;23223;51.006;7.610;2023-07-09T07:05:47;10.10;;;5.43;;
37339;SDS011;23223;51.006;7.610;2023-07-09T07:08:18;6.75;;;4.60;;
37339;SDS011;23223;51.006;7.610;2023-07-09T07:10:47;9.13;;;4.78;;
37339;SDS011;23223;51.006;7.610;2023-07-09T07:13:12;8.07;;;5.32;;
37339;SDS011;23223;51.006;7.610;2023-07-09T07:15:38;8.48;;;4.47;;
37339;SDS011;23223;51.006;7.610;2023-07-09T07:18:05;9.50;;;4.55;;
37339;SDS011;23223;51.006;7.610;2023-07-09T07:20:31;7.43;;;3.75;;
37339;SDS011;23223;51.006;7.610;2023-07-09T07:22:56;7.35;;;4.85;;
37339;SDS011;23223;51.006;7.610;2023-07-09T07:25:23;10.05;;;4.15;;
37339;SDS011;23223;51.006;7.610;2023-07-09T07:27:49;6.40;;;4.18;;
37339;SDS011;23223;51.006;7.610;2023-07-09T07:30:15;12.05;;;3.53;;
37339;SDS011;23223;51.006;7.610;2023-07-09T07:32:44;7.07;;;3.95;;
37339;SDS011;23223;51.006;7.610;2023-07-09T07:35:11;8.43;;;4.63;;
37339;SDS011;23223;51.006;7.610;2023-07-09T07:37:38;5.15;;;4.43;;
37339;SDS011;23223;51.006;7.610;2023-07-09T07:40:05;7.60;;;4.10;;
37339;SDS011;23223;51.006;7.610;2023-07-09T07:42:31;4.60;;;3.63;;
37339;SDS011;23223;51.006;7.610;2023-07-09T07:44:57;6.53;;;4.15;;
37339;SDS011;23223;51.006;7.610;2023-07-09T07:47:23;8.43;;;4.20;;
37339;SDS011;23223;51.006;7.610;2023-07-09T07:49:48;5.80;;;3.38;;
37339;SDS011;23223;51.006;7.610;2023-07-09T07:52:14;9.88;;;4.80;;
37339;SDS011;23223;51.006;7.610;2023-07-09T07:54:40;7.03;;;4.55;;
37339;SDS011;23223;51.006;7.610;2023-07-09T07:57:05;7.35;;;4.70;;
37339;SDS011;23223;51.006;7.610;2023-07-09T07:59:34;6.53;;;3.97;;
37339;SDS011;23223;51.006;7.610;2023-07-09T08:02:00;8.13;;;4.25;;
37339;SDS011;23223;51.006;7.610;2023-07-09T08:04:27;4.90;;;3.47;;
37339;SDS011;23223;51.006;7.610;2023-07-09T08:06:53;7.05;;;4.43;;
37339;SDS011;23223;51.006;7.610;2023-07-09T08:09:19;10.38;;;4.60;;
37339;SDS011;23223;51.006;7.610;2023-07-09T08:11:44;9.18;;;4.28;;
37339;SDS011;23223;51.006;7.610;2023-07-09T08:14:10;6.00;;;4.18;;
37339;SDS011;23223;51.006;7.610;2023-07-09T08:16:36;6.95;;;4.00;;
37339;SDS011;23223;51.006;7.610;2023-07-09T08:19:02;6.97;;;4.50;;
37339;SDS011;23223;51.006;7.610;2023-07-09T08:21:28;5.88;;;4.03;;
37339;SDS011;23223;51.006;7.610;2023-07-09T08:23:53;7.45;;;4.47;;
37339;SDS011;23223;51.006;7.610;2023-07-09T08:26:19;6.82;;;4.10;;
37339;SDS011;23223;51.006;7.610;2023-07-09T08:28:45;6.93;;;4.10;;
37339;SDS011;23223;51.006;7.610;2023-07-09T08:31:10;10.18;;;4.40;;
37339;SDS011;23223;51.006;7.610;2023-07-09T08:33:36;10.25;;;4.50;;
37339;SDS011;23223;51.006;7.610;2023-07-09T08:36:02;5.10;;;4.30;;
37339;SDS011;23223;51.006;7.610;2023-07-09T08:38:28;6.25;;;3.97;;
37339;SDS011;23223;51.006;7.610;2023-07-09T08:40:58;10.30;;;5.18;;
37339;SDS011;23223;51.006;7.610;2023-07-09T08:49:53;4.85;;;4.00;;
37339;SDS011;23223;51.006;7.610;2023-07-09T08:52:17;9.05;;;4.63;;
37339;SDS011;23223;51.006;7.610;2023-07-09T08:55:11;4.32;;;3.58;;
37339;SDS011;23223;51.006;7.610;2023-07-09T08:57:44;6.80;;;4.07;;
37339;SDS011;23223;51.006;7.610;2023-07-09T09:00:24;10.02;;;3.58;;
37339;SDS011;23223;51.006;7.610;2023-07-09T09:02:56;7.30;;;4.15;;
37339;SDS011;23223;51.006;7.610;2023-07-09T09:05:25;6.93;;;4.28;;
37339;SDS011;23223;51.006;7.610;2023-07-09T09:07:56;5.72;;;3.88;;
37339;SDS011;23223;51.006;7.610;2023-07-09T09:10:29;7.47;;;3.45;;
37339;SDS011;23223;51.006;7.610;2023-07-09T09:13:14;5.53;;;3.67;;
37339;SDS011;23223;51.006;7.610;2023-07-09T09:15:45;5.32;;;3.25;;
37339;SDS011;23223;51.006;7.610;2023-07-09T09:18:20;5.97;;;4.03;;
37339;SDS011;23223;51.006;7.610;2023-07-09T09:20:58;5.65;;;3.95;;
37339;SDS011;23223;51.006;7.610;2023-07-09T09:23:39;5.45;;;3.92;;
37339;SDS011;23223;51.006;7.610;2023-07-09T09:26:14;8.30;;;4.10;;
37339;SDS011;23223;51.006;7.610;2023-07-09T09:28:43;8.75;;;3.38;;
37339;SDS011;23223;51.006;7.610;2023-07-09T09:31:12;4.82;;;3.50;;
37339;SDS011;23223;51.006;7.610;2023-07-09T09:33:43;6.68;;;3.83;;
37339;SDS011;23223;51.006;7.610;2023-07-09T09:36:14;6.70;;;3.83;;
37339;SDS011;23223;51.006;7.610;2023-07-09T09:38:50;5.30;;;4.03;;
37339;SDS011;23223;51.006;7.610;2023-07-09T09:41:18;11.70;;;3.80;;
37339;SDS011;23223;51.006;7.610;2023-07-09T09:43:47;7.53;;;3.83;;
37339;SDS011;23223;51.006;7.610;2023-07-09T09:46:24;7.82;;;3.95;;
37339;SDS011;23223;51.006;7.610;2023-07-09T09:48:55;4.85;;;3.60;;
37339;SDS011;23223;51.006;7.610;2023-07-09T09:51:25;7.25;;;3.78;;
37339;SDS011;23223;51.006;7.610;2023-07-09T09:53:59;8.68;;;3.88;;
37339;SDS011;23223;51.006;7.610;2023-07-09T09:58:57;4.90;;;3.70;;
37339;SDS011;23223;51.006;7.610;2023-07-09T10:01:27;5.90;;;3.55;;
37339;SDS011;23223;51.006;7.610;2023-07-09T10:03:55;7.53;;;4.05;;
37339;SDS011;23223;51.006;7.610;2023-07-09T10:06:33;4.82;;;3.20;;
37339;SDS011;23223;51.006;7.610;2023-07-09T10:09:06;7.07;;;3.42;;
37339;SDS011;23223;51.006;7.610;2023-07-09T10:11:47;5.65;;;3.80;;
37339;SDS011;23223;51.006;7.610;2023-07-09T10:17:07;7.10;;;3.22;;
37339;SDS011;23223;51.006;7.610;2023-07-09T10:22:36;9.07;;;3.50;;
37339;SDS011;23223;51.006;7.610;2023-07-09T10:28:26;5.40;;;3.80;;
37339;SDS011;23223;51.006;7.610;2023-07-09T10:39:44;5.47;;;3.05;;
37339;SDS011;23223;51.006;7.610;2023-07-09T10:42:58;5.63;;;3.45;;
37339;SDS011;23223;51.006;7.610;2023-07-09T10:45:16;6.97;;;3.38;;
37339;SDS011;23223;51.006;7.610;2023-07-09T10:47:59;5.25;;;3.05;;
37339;SDS011;23223;51.006;7.610;2023-07-09T10:50:36;7.35;;;3.95;;
37339;SDS011;23223;51.006;7.610;2023-07-09T10:56:11;6.65;;;3.35;;
37339;SDS011;23223;51.006;7.610;2023-07-09T10:59:00;5.63;;;3.03;;
37339;SDS011;23223;51.006;7.610;2023-07-09T11:01:54;7.32;;;3.63;;
37339;SDS011;23223;51.006;7.610;2023-07-09T11:06:59;8.75;;;3.60;;
37339;SDS011;23223;51.006;7.610;2023-07-09T11:12:03;4.95;;;3.28;;
37339;SDS011;23223;51.006;7.610;2023-07-09T11:15:01;4.68;;;3.10;;
37339;SDS011;23223;51.006;7.610;2023-07-09T11:17:26;5.88;;;3.75;;
37339;SDS011;23223;51.006;7.610;2023-07-09T11:20:06;4.53;;;3.30;;
37339;SDS011;23223;51.006;7.610;2023-07-09T11:22:41;7.57;;;3.10;;
37339;SDS011;23223;51.006;7.610;2023-07-09T11:25:10;6.40;;;3.60;;
37339;SDS011;23223;51.006;7.610;2023-07-09T11:28:01;7.70;;;3.60;;
37339;SDS011;23223;51.006;7.610;2023-07-09T11:30:29;5.43;;;3.40;;
37339;SDS011;23223;51.006;7.610;2023-07-09T11:32:59;5.65;;;3.70;;
37339;SDS011;23223;51.006;7.610;2023-07-09T11:35:30;6.45;;;3.10;;
37339;SDS011;23223;51.006;7.610;2023-07-09T11:38:17;4.07;;;2.92;;
37339;SDS011;23223;51.006;7.610;2023-07-09T11:40:45;4.93;;;2.95;;
37339;SDS011;23223;51.006;7.610;2023-07-09T11:43:32;4.88;;;2.97;;
37339;SDS011;23223;51.006;7.610;2023-07-09T11:46:18;5.53;;;3.13;;
37339;SDS011;23223;51.006;7.610;2023-07-09T11:48:48;7.10;;;2.88;;
37339;SDS011;23223;51.006;7.610;2023-07-09T11:51:20;8.32;;;3.85;;
37339;SDS011;23223;51.006;7.610;2023-07-09T11:54:00;7.68;;;3.78;;
37339;SDS011;23223;51.006;7.610;2023-07-09T11:56:25;6.30;;;3.13;;
37339;SDS011;23223;51.006;7.610;2023-07-09T11:58:52;7.05;;;3.85;;
37339;SDS011;23223;51.006;7.610;2023-07-09T12:01:28;5.47;;;3.38;;
37339;SDS011;23223;51.006;7.610;2023-07-09T12:04:01;4.55;;;3.25;;
37339;SDS011;23223;51.006;7.610;2023-07-09T12:06:31;7.72;;;3.67;;
37339;SDS011;23223;51.006;7.610;2023-07-09T12:08:58;6.55;;;4.10;;
37339;SDS011;23223;51.006;7.610;2023-07-09T12:13:50;5.88;;;3.67;;
37339;SDS011;23223;51.006;7.610;2023-07-09T12:16:18;5.60;;;3.40;;
37339;SDS011;23223;51.006;7.610;2023-07-09T12:18:58;8.23;;;3.70;;
37339;SDS011;23223;51.006;7.610;2023-07-09T12:21:24;7.15;;;3.67;;
37339;SDS011;23223;51.006;7.610;2023-07-09T12:23:51;8.30;;;3.38;;
37339;SDS011;23223;51.006;7.610;2023-07-09T12:26:18;6.00;;;3.15;;
37339;SDS011;23223;51.006;7.610;2023-07-09T12:28:51;12.60;;;4.38;;
37339;SDS011;23223;51.006;7.610;2023-07-09T12:31:20;9.35;;;4.15;;
37339;SDS011;23223;51.006;7.610;2023-07-09T12:33:52;10.07;;;4.05;;
37339;SDS011;23223;51.006;7.610;2023-07-09T12:36:19;7.35;;;3.90;;
37339;SDS011;23223;51.006;7.610;2023-07-09T12:38:48;8.85;;;3.45;;
37339;SDS011;23223;51.006;7.610;2023-07-09T12:41:22;5.20;;;3.67;;
37339;SDS011;23223;51.006;7.610;2023-07-09T12:43:57;7.60;;;3.97;;
37339;SDS011;23223;51.006;7.610;2023-07-09T12:46:24;5.68;;;3.35;;
37339;SDS011;23223;51.006;7.610;2023-07-09T12:48:50;6.75;;;3.63;;
37339;SDS011;23223;51.006;7.610;2023-07-09T12:51:18;5.47;;;3.83;;
37339;SDS011;23223;51.006;7.610;2023-07-09T12:53:49;6.45;;;3.35;;
37339;SDS011;23223;51.006;7.610;2023-07-09T12:56:37;6.90;;;3.70;;
37339;SDS011;23223;51.006;7.610;2023-07-09T12:59:07;4.00;;;3.03;;
37339;SDS011;23223;51.006;7.610;2023-07-09T13:01:47;15.57;;;4.15;;
37339;SDS011;23223;51.006;7.610;2023-07-09T13:04:26;7.68;;;3.85;;
37339;SDS011;23223;51.006;7.610;2023-07-09T13:06:58;4.65;;;3.33;;
37339;SDS011;23223;51.006;7.610;2023-07-09T13:09:25;6.05;;;4.00;;
37339;SDS011;23223;51.006;7.610;2023-07-09T13:11:56;7.38;;;3.83;;
37339;SDS011;23223;51.006;7.610;2023-07-09T13:14:25;3.88;;;3.08;;
37339;SDS011;23223;51.006;7.610;2023-07-09T13:17:02;4.13;;;3.60;;
37339;SDS011;23223;51.006;7.610;2023-07-09T13:19:32;9.32;;;3.58;;
37339;SDS011;23223;51.006;7.610;2023-07-09T13:21:59;9.55;;;3.72;;
37339;SDS011;23223;51.006;7.610;2023-07-09T13:24:25;5.00;;;3.40;;
37339;SDS011;23223;51.006;7.610;2023-07-09T13:26:55;4.63;;;3.42;;
37339;SDS011;23223;51.006;7.610;2023-07-09T13:29:24;4.63;;;3.40;;
37339;SDS011;23223;51.006;7.610;2023-07-09T13:31:52;5.82;;;3.22;;
37339;SDS011;23223;51.006;7.610;2023-07-09T13:34:21;5.05;;;3.63;;
37339;SDS011;23223;51.006;7.610;2023-07-09T13:36:49;6.10;;;3.70;;
37339;SDS011;23223;51.006;7.610;2023-07-09T13:39:16;10.77;;;3.95;;
37339;SDS011;23223;51.006;7.610;2023-07-09T13:41:43;6.22;;;3.92;;
37339;SDS011;23223;51.006;7.610;2023-07-09T13:44:14;7.72;;;4.05;;
37339;SDS011;23223;51.006;7.610;2023-07-09T13:46:41;5.88;;;3.60;;
37339;SDS011;23223;51.006;7.610;2023-07-09T13:49:11;13.95;;;3.75;;
37339;SDS011;23223;51.006;7.610;2023-07-09T13:51:43;8.90;;;3.70;;
37339;SDS011;23223;51.006;7.610;2023-07-09T13:54:15;6.97;;;3.95;;
37339;SDS011;23223;51.006;7.610;2023-07-09T13:57:04;9.15;;;3.90;;
37339;SDS011;23223;51.006;7.610;2023-07-09T13:59:32;12.10;;;3.60;;
37339;SDS011;23223;51.006;7.610;2023-07-09T14:01:58;7.43;;;3.55;;
37339;SDS011;23223;51.006;7.610;2023-07-09T14:04:25;8.68;;;3.72;;
37339;SDS011;23223;51.006;7.610;2023-07-09T14:06:53;6.10;;;3.75;;
37339;SDS011;23223;51.006;7.610;2023-07-09T14:09:20;8.43;;;3.90;;
37339;SDS011;23223;51.006;7.610;2023-07-09T14:11:49;7.47;;;3.58;;
37339;SDS011;23223;51.006;7.610;2023-07-09T14:14:22;3.75;;;2.95;;
37339;SDS011;23223;51.006;7.610;2023-07-09T14:16:53;7.22;;;3.67;;
37339;SDS011;23223;51.006;7.610;2023-07-09T14:19:20;5.03;;;3.83;;
37339;SDS011;23223;51.006;7.610;2023-07-09T14:21:48;6.97;;;3.35;;
37339;SDS011;23223;51.006;7.610;2023-07-09T14:26:53;8.35;;;3.83;;
37339;SDS011;23223;51.006;7.610;2023-07-09T14:29:23;9.32;;;3.90;;
37339;SDS011;23223;51.006;7.610;2023-07-09T14:31:49;7.80;;;3.83;;
37339;SDS011;23223;51.006;7.610;2023-07-09T14:34:20;10.00;;;4.70;;
37339;SDS011;23223;51.006;7.610;2023-07-09T14:36:49;8.88;;;4.18;;
37339;SDS011;23223;51.006;7.610;2023-07-09T14:39:18;5.55;;;4.03;;
37339;SDS011;23223;51.006;7.610;2023-07-09T14:41:44;12.90;;;4.68;;
37339;SDS011;23223;51.006;7.610;2023-07-09T14:44:31;6.35;;;3.90;;
37339;SDS011;23223;51.006;7.610;2023-07-09T14:46:57;8.98;;;3.80;;
37339;SDS011;23223;51.006;7.610;2023-07-09T14:49:24;9.05;;;4.30;;
37339;SDS011;23223;51.006;7.610;2023-07-09T14:51:52;13.27;;;4.65;;
37339;SDS011;23223;51.006;7.610;2023-07-09T14:54:28;9.93;;;4.60;;
37339;SDS011;23223;51.006;7.610;2023-07-09T14:56:56;10.07;;;4.57;;
37339;SDS011;23223;51.006;7.610;2023-07-09T14:59:23;8.80;;;4.10;;
37339;SDS011;23223;51.006;7.610;2023-07-09T15:01:49;11.35;;;4.50;;
37339;SDS011;23223;51.006;7.610;2023-07-09T15:06:51;7.45;;;4.07;;
37339;SDS011;23223;51.006;7.610;2023-07-09T15:09:19;4.85;;;3.58;;
37339;SDS011;23223;51.006;7.610;2023-07-09T15:11:48;5.78;;;3.72;;
37339;SDS011;23223;51.006;7.610;2023-07-09T15:14:16;6.18;;;3.17;;
37339;SDS011;23223;51.006;7.610;2023-07-09T15:16:42;6.38;;;4.47;;
37339;SDS011;23223;51.006;7.610;2023-07-09T15:19:15;5.90;;;3.15;;
37339;SDS011;23223;51.006;7.610;2023-07-09T15:21:42;3.40;;;1.75;;
37339;SDS011;23223;51.006;7.610;2023-07-09T15:24:11;13.40;;;3.70;;
37339;SDS011;23223;51.006;7.610;2023-07-09T15:26:41;10.70;;;3.85;;
37339;SDS011;23223;51.006;7.610;2023-07-09T15:29:12;6.05;;;3.40;;
37339;SDS011;23223;51.006;7.610;2023-07-09T15:31:40;5.28;;;3.10;;
37339;SDS011;23223;51.006;7.610;2023-07-09T15:34:07;6.72;;;3.50;;
37339;SDS011;23223;51.006;7.610;2023-07-09T15:36:32;4.93;;;2.78;;
37339;SDS011;23223;51.006;7.610;2023-07-09T15:38:58;4.47;;;2.95;;
37339;SDS011;23223;51.006;7.610;2023-07-09T15:41:24;10.23;;;2.72;;